sensor_id;sensor_type;location;lat;lon;timestamp;P1;durP1;ratioP1;P2;durP2;ratioP2
75007;SDS011;63554;48.940;12.050;2022-10-22T00:04:44;12.25;;;5.13;;
75007;SDS011;63554;48.940;12.050;2022-10-22T00:09:48;9.30;;;6.13;;
75007;SDS011;63554;48.940;12.050;2022-10-22T00:14:52;8.20;;;6.13;;
75007;SDS011;63554;48.940;12.050;2022-10-22T00:19:55;11.95;;;6.80;;
75007;SDS011;63554;48.940;12.050;2022-10-22T00:24:58;11.43;;;6.57;;
75007;SDS011;63554;48.940;12.050;2022-10-22T00:30:03;10.93;;;6.25;;
75007;SDS011;63554;48.940;12.050;2022-10-22T00:35:06;10.88;;;6.30;;
75007;SDS011;63554;48.940;12.050;2022-10-22T00:40:10;13.57;;;6.55;;
75007;SDS011;63554;48.940;12.050;2022-10-22T00:45:17;9.50;;;5.47;;
75007;SDS011;63554;48.940;12.050;2022-10-22T00:50:23;11.38;;;5.93;;
75007;SDS011;63554;48.940;12.050;2022-10-22T00:55:29;12.88;;;7.50;;
75007;SDS011;63554;48.940;12.050;2022-10-22T01:00:36;7.75;;;5.57;;
75007;SDS011;63554;48.940;12.050;2022-10-22T01:05:40;11.85;;;5.45;;
75007;SDS011;63554;48.940;12.050;2022-10-22T01:10:48;10.35;;;6.35;;
75007;SDS011;63554;48.940;12.050;2022-10-22T01:16:03;9.07;;;5.95;;
75007;SDS011;63554;48.940;12.050;2022-10-22T01:21:14;12.68;;;7.35;;
75007;SDS011;63554;48.940;12.050;2022-10-22T01:26:25;13.38;;;6.60;;
75007;SDS011;63554;48.940;12.050;2022-10-22T01:31:40;10.68;;;6.43;;
75007;SDS011;63554;48.940;12.050;2022-10-22T01:36:46;11.18;;;6.18;;
75007;SDS011;63554;48.940;12.050;2022-10-22T01:41:52;15.05;;;7.25;;
75007;SDS011;63554;48.940;12.050;2022-10-22T01:47:00;10.65;;;6.95;;
75007;SDS011;63554;48.940;12.050;2022-10-22T01:52:12;11.18;;;6.60;;
75007;SDS011;63554;48.940;12.050;2022-10-22T01:57:25;12.50;;;6.45;;
75007;SDS011;63554;48.940;12.050;2022-10-22T02:02:38;14.30;;;7.65;;
75007;SDS011;63554;48.940;12.050;2022-10-22T02:07:45;8.93;;;6.93;;
75007;SDS011;63554;48.940;12.050;2022-10-22T02:12:52;11.23;;;5.75;;
75007;SDS011;63554;48.940;12.050;2022-10-22T02:17:58;12.82;;;7.43;;
75007;SDS011;63554;48.940;12.050;2022-10-22T02:23:02;11.05;;;5.85;;
75007;SDS011;63554;48.940;12.050;2022-10-22T02:28:07;13.05;;;6.55;;
75007;SDS011;63554;48.940;12.050;2022-10-22T02:33:16;10.77;;;6.70;;
75007;SDS011;63554;48.940;12.050;2022-10-22T02:38:23;10.40;;;5.53;;
75007;SDS011;63554;48.940;12.050;2022-10-22T02:43:28;9.18;;;5.97;;
75007;SDS011;63554;48.940;12.050;2022-10-22T02:48:32;12.45;;;5.82;;
75007;SDS011;63554;48.940;12.050;2022-10-22T02:53:35;9.15;;;5.80;;
75007;SDS011;63554;48.940;12.050;2022-10-22T02:58:38;10.15;;;6.65;;
75007;SDS011;63554;48.940;12.050;2022-10-22T03:03:42;11.43;;;6.85;;
75007;SDS011;63554;48.940;12.050;2022-10-22T03:08:45;10.40;;;6.40;;
75007;SDS011;63554;48.940;12.050;2022-10-22T03:13:48;11.90;;;6.70;;
75007;SDS011;63554;48.940;12.050;2022-10-22T03:18:53;10.95;;;6.15;;
75007;SDS011;63554;48.940;12.050;2022-10-22T03:23:56;12.32;;;7.03;;
75007;SDS011;63554;48.940;12.050;2022-10-22T03:29:00;8.80;;;5.65;;
75007;SDS011;63554;48.940;12.050;2022-10-22T03:34:05;8.68;;;5.55;;
75007;SDS011;63554;48.940;12.050;2022-10-22T03:39:08;12.23;;;5.57;;
75007;SDS011;63554;48.940;12.050;2022-10-22T03:44:13;9.80;;;5.63;;
75007;SDS011;63554;48.940;12.050;2022-10-22T03:49:19;10.60;;;6.93;;
75007;SDS011;63554;48.940;12.050;2022-10-22T03:54:22;9.23;;;5.72;;
75007;SDS011;63554;48.940;12.050;2022-10-22T03:59:25;11.45;;;6.78;;
75007;SDS011;63554;48.940;12.050;2022-10-22T04:04:30;9.88;;;6.45;;
75007;SDS011;63554;48.940;12.050;2022-10-22T04:09:33;10.50;;;6.40;;
75007;SDS011;63554;48.940;12.050;2022-10-22T04:14:36;29.70;;;13.43;;
75007;SDS011;63554;48.940;12.050;2022-10-22T04:19:41;11.98;;;6.70;;
75007;SDS011;63554;48.940;12.050;2022-10-22T04:24:44;9.23;;;5.88;;
75007;SDS011;63554;48.940;12.050;2022-10-22T04:29:47;12.45;;;5.82;;
75007;SDS011;63554;48.940;12.050;2022-10-22T04:34:51;8.52;;;5.68;;
75007;SDS011;63554;48.940;12.050;2022-10-22T04:39:54;10.02;;;6.13;;
75007;SDS011;63554;48.940;12.050;2022-10-22T04:44:58;12.52;;;6.60;;
75007;SDS011;63554;48.940;12.050;2022-10-22T04:50:03;8.65;;;4.80;;
75007;SDS011;63554;48.940;12.050;2022-10-22T04:55:07;10.55;;;6.57;;
75007;SDS011;63554;48.940;12.050;2022-10-22T05:00:10;9.95;;;6.30;;
75007;SDS011;63554;48.940;12.050;2022-10-22T05:05:15;12.80;;;7.03;;
75007;SDS011;63554;48.940;12.050;2022-10-22T05:10:18;7.93;;;5.57;;
75007;SDS011;63554;48.940;12.050;2022-10-22T05:15:21;8.90;;;5.97;;
75007;SDS011;63554;48.940;12.050;2022-10-22T05:20:26;8.57;;;5.47;;
75007;SDS011;63554;48.940;12.050;2022-10-22T05:25:29;8.15;;;5.80;;
75007;SDS011;63554;48.940;12.050;2022-10-22T05:30:32;10.30;;;6.13;;
75007;SDS011;63554;48.940;12.050;2022-10-22T05:35:36;10.20;;;5.60;;
75007;SDS011;63554;48.940;12.050;2022-10-22T05:40:39;11.45;;;5.75;;
75007;SDS011;63554;48.940;12.050;2022-10-22T05:45:42;9.75;;;5.32;;
75007;SDS011;63554;48.940;12.050;2022-10-22T05:50:46;8.65;;;5.78;;
75007;SDS011;63554;48.940;12.050;2022-10-22T05:55:50;10.55;;;5.35;;
75007;SDS011;63554;48.940;12.050;2022-10-22T06:00:54;9.73;;;5.13;;
75007;SDS011;63554;48.940;12.050;2022-10-22T06:06:04;10.98;;;6.18;;
75007;SDS011;63554;48.940;12.050;2022-10-22T06:11:17;10.68;;;6.45;;
75007;SDS011;63554;48.940;12.050;2022-10-22T06:16:21;8.45;;;5.60;;
75007;SDS011;63554;48.940;12.050;2022-10-22T06:21:25;9.70;;;5.80;;
75007;SDS011;63554;48.940;12.050;2022-10-22T06:26:29;8.02;;;5.82;;
75007;SDS011;63554;48.940;12.050;2022-10-22T06:31:32;6.35;;;4.63;;
75007;SDS011;63554;48.940;12.050;2022-10-22T06:36:38;11.30;;;5.05;;
75007;SDS011;63554;48.940;12.050;2022-10-22T06:41:43;8.18;;;4.20;;
75007;SDS011;63554;48.940;12.050;2022-10-22T06:46:47;5.18;;;3.13;;
75007;SDS011;63554;48.940;12.050;2022-10-22T06:51:53;5.40;;;3.30;;
75007;SDS011;63554;48.940;12.050;2022-10-22T06:56:56;7.13;;;2.63;;
75007;SDS011;63554;48.940;12.050;2022-10-22T07:01:59;4.75;;;2.58;;
75007;SDS011;63554;48.940;12.050;2022-10-22T07:07:04;5.03;;;2.60;;
75007;SDS011;63554;48.940;12.050;2022-10-22T07:12:07;3.75;;;2.83;;
75007;SDS011;63554;48.940;12.050;2022-10-22T07:17:10;6.13;;;2.83;;
75007;SDS011;63554;48.940;12.050;2022-10-22T07:22:14;3.97;;;2.67;;
75007;SDS011;63554;48.940;12.050;2022-10-22T07:27:17;6.40;;;1.80;;
75007;SDS011;63554;48.940;12.050;2022-10-22T07:32:20;4.05;;;2.42;;
75007;SDS011;63554;48.940;12.050;2022-10-22T07:37:25;7.22;;;2.00;;
75007;SDS011;63554;48.940;12.050;2022-10-22T07:42:28;2.03;;;1.50;;
75007;SDS011;63554;48.940;12.050;2022-10-22T07:47:31;4.00;;;1.83;;
75007;SDS011;63554;48.940;12.050;2022-10-22T07:52:36;11.68;;;4.25;;
75007;SDS011;63554;48.940;12.050;2022-10-22T07:57:39;5.10;;;2.33;;
75007;SDS011;63554;48.940;12.050;2022-10-22T08:02:42;5.10;;;1.27;;
75007;SDS011;63554;48.940;12.050;2022-10-22T08:07:47;2.63;;;1.35;;
75007;SDS011;63554;48.940;12.050;2022-10-22T08:12:50;3.10;;;1.65;;
75007;SDS011;63554;48.940;12.050;2022-10-22T08:17:53;3.25;;;1.40;;
75007;SDS011;63554;48.940;12.050;2022-10-22T08:22:57;2.03;;;1.63;;
75007;SDS011;63554;48.940;12.050;2022-10-22T08:28:00;3.17;;;1.80;;
75007;SDS011;63554;48.940;12.050;2022-10-22T08:33:04;2.95;;;2.15;;
75007;SDS011;63554;48.940;12.050;2022-10-22T08:38:09;4.75;;;2.15;;
75007;SDS011;63554;48.940;12.050;2022-10-22T08:43:16;5.80;;;2.55;;
75007;SDS011;63554;48.940;12.050;2022-10-22T08:48:41;5.35;;;2.08;;
75007;SDS011;63554;48.940;12.050;2022-10-22T08:53:52;3.85;;;2.00;;
75007;SDS011;63554;48.940;12.050;2022-10-22T08:59:09;2.90;;;1.65;;
75007;SDS011;63554;48.940;12.050;2022-10-22T09:09:28;4.05;;;1.63;;
75007;SDS011;63554;48.940;12.050;2022-10-22T09:14:35;3.15;;;1.73;;
75007;SDS011;63554;48.940;12.050;2022-10-22T09:19:39;2.53;;;1.40;;
75007;SDS011;63554;48.940;12.050;2022-10-22T09:24:53;5.22;;;1.80;;
75007;SDS011;63554;48.940;12.050;2022-10-22T09:30:00;5.30;;;1.90;;
75007;SDS011;63554;48.940;12.050;2022-10-22T09:35:04;2.35;;;1.50;;
75007;SDS011;63554;48.940;12.050;2022-10-22T09:40:14;4.80;;;1.65;;
75007;SDS011;63554;48.940;12.050;2022-10-22T09:45:18;2.28;;;1.52;;
75007;SDS011;63554;48.940;12.050;2022-10-22T09:50:25;2.15;;;1.73;;
75007;SDS011;63554;48.940;12.050;2022-10-22T09:55:31;13.30;;;1.85;;
75007;SDS011;63554;48.940;12.050;2022-10-22T10:00:34;2.35;;;1.67;;
75007;SDS011;63554;48.940;12.050;2022-10-22T10:05:40;2.70;;;1.95;;
75007;SDS011;63554;48.940;12.050;2022-10-22T10:10:46;2.38;;;1.98;;
75007;SDS011;63554;48.940;12.050;2022-10-22T10:15:53;7.32;;;2.20;;
75007;SDS011;63554;48.940;12.050;2022-10-22T10:21:02;3.30;;;2.30;;
75007;SDS011;63554;48.940;12.050;2022-10-22T10:26:14;2.33;;;1.92;;
75007;SDS011;63554;48.940;12.050;2022-10-22T10:31:24;3.65;;;2.28;;
75007;SDS011;63554;48.940;12.050;2022-10-22T10:36:35;2.90;;;2.13;;
75007;SDS011;63554;48.940;12.050;2022-10-22T10:41:50;3.08;;;2.08;;
75007;SDS011;63554;48.940;12.050;2022-10-22T10:46:58;3.13;;;1.90;;
75007;SDS011;63554;48.940;12.050;2022-10-22T10:52:13;5.35;;;1.60;;
75007;SDS011;63554;48.940;12.050;2022-10-22T10:57:28;1.88;;;1.60;;
75007;SDS011;63554;48.940;12.050;2022-10-22T11:08:31;3.70;;;2.20;;
75007;SDS011;63554;48.940;12.050;2022-10-22T11:13:40;3.88;;;1.25;;
75007;SDS011;63554;48.940;12.050;2022-10-22T11:18:50;1.42;;;1.10;;
75007;SDS011;63554;48.940;12.050;2022-10-22T11:23:59;0.93;;;0.75;;
75007;SDS011;63554;48.940;12.050;2022-10-22T11:29:10;1.08;;;0.85;;
75007;SDS011;63554;48.940;12.050;2022-10-22T11:34:17;1.23;;;0.60;;
75007;SDS011;63554;48.940;12.050;2022-10-22T11:39:37;1.25;;;0.70;;
75007;SDS011;63554;48.940;12.050;2022-10-22T11:55:30;1.67;;;0.50;;
75007;SDS011;63554;48.940;12.050;2022-10-22T12:00:47;0.52;;;0.45;;
75007;SDS011;63554;48.940;12.050;2022-10-22T12:06:05;2.40;;;0.55;;
75007;SDS011;63554;48.940;12.050;2022-10-22T12:11:22;5.60;;;1.95;;
75007;SDS011;63554;48.940;12.050;2022-10-22T12:16:33;4.30;;;1.17;;
75007;SDS011;63554;48.940;12.050;2022-10-22T12:21:57;1.27;;;0.45;;
75007;SDS011;63554;48.940;12.050;2022-10-22T12:27:03;1.38;;;0.60;;
75007;SDS011;63554;48.940;12.050;2022-10-22T12:32:22;7.53;;;3.05;;
75007;SDS011;63554;48.940;12.050;2022-10-22T12:37:30;0.80;;;0.52;;
75007;SDS011;63554;48.940;12.050;2022-10-22T12:42:36;1.30;;;0.70;;
75007;SDS011;63554;48.940;12.050;2022-10-22T12:47:45;1.80;;;0.93;;
75007;SDS011;63554;48.940;12.050;2022-10-22T12:52:48;1.85;;;0.85;;
75007;SDS011;63554;48.940;12.050;2022-10-22T12:57:51;2.22;;;0.75;;
75007;SDS011;63554;48.940;12.050;2022-10-22T13:02:56;1.98;;;1.30;;
75007;SDS011;63554;48.940;12.050;2022-10-22T13:08:02;0.75;;;0.47;;
75007;SDS011;63554;48.940;12.050;2022-10-22T13:18:33;3.38;;;1.23;;
75007;SDS011;63554;48.940;12.050;2022-10-22T13:23:36;0.80;;;0.65;;
75007;SDS011;63554;48.940;12.050;2022-10-22T13:28:39;1.60;;;0.70;;
75007;SDS011;63554;48.940;12.050;2022-10-22T13:33:44;0.88;;;0.73;;
75007;SDS011;63554;48.940;12.050;2022-10-22T13:38:52;5.07;;;1.98;;
75007;SDS011;63554;48.940;12.050;2022-10-22T13:43:55;1.85;;;0.82;;
75007;SDS011;63554;48.940;12.050;2022-10-22T13:49:00;1.55;;;0.80;;
75007;SDS011;63554;48.940;12.050;2022-10-22T13:54:03;1.10;;;0.55;;
75007;SDS011;63554;48.940;12.050;2022-10-22T13:59:12;1.00;;;0.70;;
75007;SDS011;63554;48.940;12.050;2022-10-22T14:09:24;2.03;;;0.50;;
75007;SDS011;63554;48.940;12.050;2022-10-22T14:14:27;3.45;;;0.80;;
75007;SDS011;63554;48.940;12.050;2022-10-22T14:19:31;1.25;;;0.50;;
75007;SDS011;63554;48.940;12.050;2022-10-22T14:24:34;0.73;;;0.52;;
75007;SDS011;63554;48.940;12.050;2022-10-22T14:29:37;0.50;;;0.50;;
75007;SDS011;63554;48.940;12.050;2022-10-22T14:34:42;1.10;;;0.50;;
75007;SDS011;63554;48.940;12.050;2022-10-22T14:39:46;2.45;;;0.57;;
75007;SDS011;63554;48.940;12.050;2022-10-22T14:44:53;2.13;;;0.60;;
75007;SDS011;63554;48.940;12.050;2022-10-22T14:49:57;0.60;;;0.40;;
75007;SDS011;63554;48.940;12.050;2022-10-22T14:55:02;0.80;;;0.70;;
75007;SDS011;63554;48.940;12.050;2022-10-22T15:00:07;3.90;;;0.52;;
75007;SDS011;63554;48.940;12.050;2022-10-22T15:05:14;1.20;;;0.73;;
75007;SDS011;63554;48.940;12.050;2022-10-22T15:10:17;1.50;;;0.65;;
75007;SDS011;63554;48.940;12.050;2022-10-22T15:15:20;0.82;;;0.50;;
75007;SDS011;63554;48.940;12.050;2022-10-22T15:20:27;1.00;;;0.65;;
75007;SDS011;63554;48.940;12.050;2022-10-22T15:25:30;0.98;;;0.68;;
75007;SDS011;63554;48.940;12.050;2022-10-22T15:30:33;2.45;;;0.80;;
75007;SDS011;63554;48.940;12.050;2022-10-22T15:35:37;0.70;;;0.50;;
75007;SDS011;63554;48.940;12.050;2022-10-22T15:40:40;1.40;;;0.85;;
75007;SDS011;63554;48.940;12.050;2022-10-22T15:45:43;4.10;;;1.35;;
75007;SDS011;63554;48.940;12.050;2022-10-22T15:50:59;5.78;;;1.33;;
75007;SDS011;63554;48.940;12.050;2022-10-22T15:56:02;1.63;;;1.27;;
75007;SDS011;63554;48.940;12.050;2022-10-22T16:01:05;8.52;;;1.90;;
75007;SDS011;63554;48.940;12.050;2022-10-22T16:06:11;3.50;;;2.08;;
75007;SDS011;63554;48.940;12.050;2022-10-22T16:11:14;2.78;;;1.58;;
75007;SDS011;63554;48.940;12.050;2022-10-22T16:16:17;2.80;;;2.17;;
75007;SDS011;63554;48.940;12.050;2022-10-22T16:21:21;3.63;;;3.28;;
75007;SDS011;63554;48.940;12.050;2022-10-22T16:26:26;3.35;;;2.45;;
75007;SDS011;63554;48.940;12.050;2022-10-22T16:31:29;7.20;;;4.15;;
75007;SDS011;63554;48.940;12.050;2022-10-22T16:36:34;3.60;;;2.35;;
75007;SDS011;63554;48.940;12.050;2022-10-22T16:41:38;5.55;;;2.35;;
75007;SDS011;63554;48.940;12.050;2022-10-22T16:46:41;3.60;;;2.13;;
75007;SDS011;63554;48.940;12.050;2022-10-22T16:51:45;4.57;;;2.22;;
75007;SDS011;63554;48.940;12.050;2022-10-22T16:56:48;3.97;;;2.15;;
75007;SDS011;63554;48.940;12.050;2022-10-22T17:01:51;2.72;;;1.83;;
75007;SDS011;63554;48.940;12.050;2022-10-22T17:06:56;2.28;;;1.35;;
75007;SDS011;63554;48.940;12.050;2022-10-22T17:11:59;5.00;;;1.85;;
75007;SDS011;63554;48.940;12.050;2022-10-22T17:17:02;12.10;;;4.13;;
75007;SDS011;63554;48.940;12.050;2022-10-22T17:22:07;3.58;;;2.30;;
75007;SDS011;63554;48.940;12.050;2022-10-22T17:27:12;4.65;;;2.55;;
75007;SDS011;63554;48.940;12.050;2022-10-22T17:32:15;3.67;;;2.78;;
75007;SDS011;63554;48.940;12.050;2022-10-22T17:37:19;2.92;;;2.40;;
75007;SDS011;63554;48.940;12.050;2022-10-22T17:42:22;3.45;;;2.50;;
75007;SDS011;63554;48.940;12.050;2022-10-22T17:47:26;2.47;;;1.92;;
75007;SDS011;63554;48.940;12.050;2022-10-22T17:52:30;5.65;;;2.58;;
75007;SDS011;63554;48.940;12.050;2022-10-22T17:57:33;4.55;;;2.63;;
75007;SDS011;63554;48.940;12.050;2022-10-22T18:02:36;4.57;;;2.83;;
75007;SDS011;63554;48.940;12.050;2022-10-22T18:07:42;5.20;;;3.95;;
75007;SDS011;63554;48.940;12.050;2022-10-22T18:12:45;4.10;;;2.83;;
75007;SDS011;63554;48.940;12.050;2022-10-22T18:17:48;5.32;;;4.43;;
75007;SDS011;63554;48.940;12.050;2022-10-22T18:22:53;6.13;;;4.20;;
75007;SDS011;63554;48.940;12.050;2022-10-22T18:27:56;5.82;;;4.38;;
75007;SDS011;63554;48.940;12.050;2022-10-22T18:32:59;5.53;;;4.15;;
75007;SDS011;63554;48.940;12.050;2022-10-22T18:38:04;6.50;;;4.32;;
75007;SDS011;63554;48.940;12.050;2022-10-22T18:43:07;6.75;;;4.40;;
75007;SDS011;63554;48.940;12.050;2022-10-22T18:48:11;10.82;;;4.50;;
75007;SDS011;63554;48.940;12.050;2022-10-22T18:53:17;7.85;;;4.93;;
75007;SDS011;63554;48.940;12.050;2022-10-22T18:58:20;7.60;;;4.78;;
75007;SDS011;63554;48.940;12.050;2022-10-22T19:03:23;5.82;;;4.50;;
75007;SDS011;63554;48.940;12.050;2022-10-22T19:08:27;12.65;;;5.43;;
75007;SDS011;63554;48.940;12.050;2022-10-22T19:13:30;6.70;;;4.13;;
75007;SDS011;63554;48.940;12.050;2022-10-22T19:18:33;6.40;;;4.38;;
75007;SDS011;63554;48.940;12.050;2022-10-22T19:23:40;5.32;;;3.45;;
75007;SDS011;63554;48.940;12.050;2022-10-22T19:28:43;4.22;;;3.42;;
75007;SDS011;63554;48.940;12.050;2022-10-22T19:33:46;4.50;;;3.40;;
75007;SDS011;63554;48.940;12.050;2022-10-22T19:38:51;5.07;;;3.30;;
75007;SDS011;63554;48.940;12.050;2022-10-22T19:43:55;11.07;;;4.68;;
75007;SDS011;63554;48.940;12.050;2022-10-22T19:49:00;7.38;;;3.50;;
75007;SDS011;63554;48.940;12.050;2022-10-22T19:54:05;6.45;;;4.50;;
75007;SDS011;63554;48.940;12.050;2022-10-22T19:59:09;4.85;;;3.97;;
75007;SDS011;63554;48.940;12.050;2022-10-22T20:04:13;4.43;;;3.72;;
75007;SDS011;63554;48.940;12.050;2022-10-22T20:09:19;16.33;;;9.82;;
75007;SDS011;63554;48.940;12.050;2022-10-22T20:14:22;6.60;;;3.85;;
75007;SDS011;63554;48.940;12.050;2022-10-22T20:19:25;5.75;;;3.38;;
75007;SDS011;63554;48.940;12.050;2022-10-22T20:24:30;5.35;;;2.92;;
75007;SDS011;63554;48.940;12.050;2022-10-22T20:29:33;3.80;;;3.20;;
75007;SDS011;63554;48.940;12.050;2022-10-22T20:34:36;4.22;;;2.80;;
75007;SDS011;63554;48.940;12.050;2022-10-22T20:39:43;4.18;;;2.83;;
75007;SDS011;63554;48.940;12.050;2022-10-22T20:44:46;5.38;;;3.00;;
75007;SDS011;63554;48.940;12.050;2022-10-22T20:49:49;3.53;;;2.70;;
75007;SDS011;63554;48.940;12.050;2022-10-22T20:54:53;4.40;;;2.78;;
75007;SDS011;63554;48.940;12.050;2022-10-22T20:59:56;5.28;;;3.10;;
75007;SDS011;63554;48.940;12.050;2022-10-22T21:04:59;4.53;;;3.28;;
75007;SDS011;63554;48.940;12.050;2022-10-22T21:10:04;6.65;;;2.30;;
75007;SDS011;63554;48.940;12.050;2022-10-22T21:15:08;5.38;;;3.50;;
75007;SDS011;63554;48.940;12.050;2022-10-22T21:20:13;3.35;;;2.40;;
75007;SDS011;63554;48.940;12.050;2022-10-22T21:25:20;4.82;;;2.60;;
75007;SDS011;63554;48.940;12.050;2022-10-22T21:30:23;3.22;;;2.25;;
75007;SDS011;63554;48.940;12.050;2022-10-22T21:35:26;6.45;;;3.22;;
75007;SDS011;63554;48.940;12.050;2022-10-22T21:40:30;3.53;;;2.83;;
75007;SDS011;63554;48.940;12.050;2022-10-22T21:45:33;4.95;;;3.03;;
75007;SDS011;63554;48.940;12.050;2022-10-22T21:50:37;6.18;;;2.72;;
75007;SDS011;63554;48.940;12.050;2022-10-22T21:55:42;3.88;;;2.65;;
75007;SDS011;63554;48.940;12.050;2022-10-22T22:00:47;3.50;;;2.25;;
75007;SDS011;63554;48.940;12.050;2022-10-22T22:05:55;3.22;;;2.78;;
75007;SDS011;63554;48.940;12.050;2022-10-22T22:11:00;3.83;;;2.70;;
75007;SDS011;63554;48.940;12.050;2022-10-22T22:16:06;10.07;;;3.70;;
75007;SDS011;63554;48.940;12.050;2022-10-22T22:21:11;6.00;;;3.38;;
75007;SDS011;63554;48.940;12.050;2022-10-22T22:26:17;3.15;;;2.03;;
75007;SDS011;63554;48.940;12.050;2022-10-22T22:31:29;4.88;;;2.53;;
75007;SDS011;63554;48.940;12.050;2022-10-22T22:36:34;3.70;;;2.30;;
75007;SDS011;63554;48.940;12.050;2022-10-22T22:41:39;4.55;;;2.38;;
75007;SDS011;63554;48.940;12.050;2022-10-22T22:46:43;5.85;;;2.45;;
75007;SDS011;63554;48.940;12.050;2022-10-22T22:51:46;4.45;;;3.58;;
75007;SDS011;63554;48.940;12.050;2022-10-22T22:56:51;5.45;;;3.33;;
75007;SDS011;63554;48.940;12.050;2022-10-22T23:01:54;4.28;;;3.25;;
75007;SDS011;63554;48.940;12.050;2022-10-22T23:06:57;4.47;;;2.88;;
75007;SDS011;63554;48.940;12.050;2022-10-22T23:12:02;4.45;;;3.65;;
75007;SDS011;63554;48.940;12.050;2022-10-22T23:17:05;8.63;;;4.38;;
75007;SDS011;63554;48.940;12.050;2022-10-22T23:22:08;7.10;;;4.00;;
75007;SDS011;63554;48.940;12.050;2022-10-22T23:27:13;7.45;;;4.05;;
75007;SDS011;63554;48.940;12.050;2022-10-22T23:32:16;7.43;;;3.70;;
75007;SDS011;63554;48.940;12.050;2022-10-22T23:37:19;4.78;;;3.67;;
75007;SDS011;63554;48.940;12.050;2022-10-22T23:42:23;6.30;;;4.60;;
75007;SDS011;63554;48.940;12.050;2022-10-22T23:47:26;8.63;;;4.10;;
75007;SDS011;63554;48.940;12.050;2022-10-22T23:52:29;6.97;;;4.00;;
75007;SDS011;63554;48.940;12.050;2022-10-22T23:57:33;6.53;;;3.30;;
